createdAt,value
2017-01-29T00:00:55.911Z,6.2
2017-01-29T00:01:55.883Z,6.13
2017-01-29T00:02:55.465Z,6.11
2017-01-29T00:03:55.440Z,6.1
2017-01-29T00:04:55.808Z,6.03
2017-01-29T00:05:55.794Z,6.01
2017-01-29T00:06:55.772Z,6.06
2017-01-29T00:07:55.344Z,6.03
2017-01-29T00:08:55.320Z,6.02
2017-01-29T00:09:55.694Z,5.98
2017-01-29T00:10:55.674Z,5.95
2017-01-29T00:11:55.651Z,5.96
2017-01-29T00:12:55.618Z,5.98
2017-01-29T00:13:55.595Z,5.95
2017-01-29T00:14:55.570Z,5.98
2017-01-29T00:15:55.594Z,5.96
2017-01-29T00:16:55.515Z,5.9
2017-01-29T00:17:55.499Z,5.99
2017-01-29T00:18:55.469Z,5.88
2017-01-29T00:19:55.445Z,5.93
2017-01-29T00:20:55.476Z,5.95
2017-01-29T00:21:55.393Z,5.88
2017-01-29T00:22:55.370Z,5.96
2017-01-29T00:23:54.950Z,5.93
2017-01-29T00:24:55.322Z,5.96
2017-01-29T00:25:54.899Z,5.85
2017-01-29T00:26:54.889Z,5.87
2017-01-29T00:27:54.454Z,5.98
2017-01-29T00:28:55.223Z,5.92
2017-01-29T00:29:55.205Z,5.88
2017-01-29T00:30:54.779Z,5.88
2017-01-29T00:31:54.865Z,5.85
2017-01-29T00:32:55.132Z,5.9
2017-01-29T00:33:54.703Z,5.84
2017-01-29T00:34:55.093Z,5.87
2017-01-29T00:35:54.662Z,5.83
2017-01-29T00:36:55.029Z,5.87
2017-01-29T00:37:54.658Z,5.84
2017-01-29T00:38:54.996Z,5.84
2017-01-29T00:39:54.957Z,5.88
2017-01-29T00:40:54.939Z,5.88
2017-01-29T00:41:54.904Z,5.87
2017-01-29T00:42:54.893Z,5.88
2017-01-29T00:43:54.867Z,5.85
2017-01-29T00:44:54.838Z,5.9
2017-01-29T00:45:54.811Z,5.9
2017-01-29T00:46:54.782Z,5.85
2017-01-29T00:47:54.014Z,5.88
2017-01-29T00:48:54.328Z,5.95
2017-01-29T00:49:54.312Z,5.85
2017-01-29T00:50:54.289Z,5.87
2017-01-29T00:51:54.665Z,5.88
2017-01-29T00:52:54.240Z,5.93
2017-01-29T00:53:54.662Z,5.85
2017-01-29T00:54:54.581Z,5.88
2017-01-29T00:55:54.558Z,5.99
2017-01-29T00:56:53.748Z,5.83
2017-01-29T00:57:54.170Z,5.84
2017-01-29T00:58:54.485Z,5.93
2017-01-29T00:59:54.073Z,5.92
2017-01-29T01:00:54.441Z,5.84
2017-01-29T01:01:54.410Z,5.92
2017-01-29T01:02:53.593Z,5.93
2017-01-29T01:03:53.963Z,5.85
2017-01-29T01:04:54.335Z,5.93
2017-01-29T01:05:54.317Z,5.92
2017-01-29T01:06:54.338Z,5.85
2017-01-29T01:07:54.266Z,5.93
2017-01-29T01:08:53.853Z,5.95
2017-01-29T01:09:53.823Z,5.96
2017-01-29T01:10:53.795Z,5.93
2017-01-29T01:11:53.775Z,5.95
2017-01-29T01:12:54.143Z,5.98
2017-01-29T01:13:53.717Z,5.96
2017-01-29T01:14:54.089Z,5.98
2017-01-29T01:15:53.672Z,5.96
2017-01-29T01:16:54.049Z,5.99
2017-01-29T01:17:54.030Z,5.96
2017-01-29T01:18:53.601Z,5.95
2017-01-29T01:19:53.973Z,5.98
2017-01-29T01:20:53.950Z,5.98
2017-01-29T01:21:53.123Z,5.96
2017-01-29T01:22:53.501Z,5.99
2017-01-29T01:23:53.076Z,5.98
2017-01-29T01:24:53.454Z,5.95
2017-01-29T01:25:53.828Z,5.96
2017-01-29T01:26:53.417Z,5.96
2017-01-29T01:27:53.786Z,5.96
2017-01-29T01:28:53.754Z,6.02
2017-01-29T01:29:53.324Z,6.01
2017-01-29T01:30:53.303Z,5.95
2017-01-29T01:31:53.773Z,6.01
2017-01-29T01:32:53.650Z,5.93
2017-01-29T01:33:53.625Z,5.99
2017-01-29T01:34:53.603Z,6.01
2017-01-29T01:35:53.591Z,5.98
2017-01-29T01:36:53.608Z,5.99
2017-01-29T01:37:53.533Z,5.92
2017-01-29T01:38:53.513Z,5.98
2017-01-29T01:39:53.480Z,5.99
2017-01-29T01:40:53.056Z,5.9
2017-01-29T01:41:53.431Z,5.96
2017-01-29T01:42:53.404Z,5.95
2017-01-29T01:43:52.979Z,5.93
2017-01-29T01:44:53.366Z,5.88
2017-01-29T01:45:53.336Z,5.9
2017-01-29T01:46:52.506Z,5.92
2017-01-29T01:47:52.898Z,5.93
2017-01-29T01:48:53.259Z,5.85
2017-01-29T01:49:53.244Z,5.95
2017-01-29T01:50:53.207Z,5.87
2017-01-29T01:51:53.191Z,5.92
2017-01-29T01:52:53.160Z,5.85
2017-01-29T01:53:53.133Z,5.84
2017-01-29T01:54:53.128Z,5.84
2017-01-29T01:55:53.083Z,5.81
2017-01-29T01:56:53.076Z,5.84
2017-01-29T01:57:53.076Z,5.9
2017-01-29T01:58:52.625Z,5.92
2017-01-29T01:59:52.592Z,5.87
2017-01-29T02:00:52.569Z,5.81
2017-01-29T02:01:52.943Z,5.84
2017-01-29T02:02:52.523Z,5.84
2017-01-29T02:03:52.888Z,5.8
2017-01-29T02:04:52.872Z,5.78
2017-01-29T02:05:52.446Z,5.85
2017-01-29T02:06:52.824Z,5.93
2017-01-29T02:07:52.795Z,5.85
2017-01-29T02:08:52.378Z,5.75
2017-01-29T02:09:52.749Z,5.77
2017-01-29T02:10:52.723Z,5.83
2017-01-29T02:11:52.698Z,5.81
2017-01-29T02:12:52.274Z,5.84
2017-01-29T02:13:52.648Z,5.81
2017-01-29T02:14:52.623Z,5.93
2017-01-29T02:15:52.599Z,5.78
2017-01-29T02:16:52.571Z,5.81
2017-01-29T02:17:52.562Z,5.84
2017-01-29T02:18:52.525Z,5.83
2017-01-29T02:19:52.525Z,5.81
2017-01-29T02:20:52.478Z,5.81
2017-01-29T02:21:52.064Z,5.84
2017-01-29T02:22:52.028Z,5.73
2017-01-29T02:23:52.010Z,5.75
2017-01-29T02:24:52.380Z,5.75
2017-01-29T02:25:52.358Z,5.75
2017-01-29T02:26:52.328Z,5.75
2017-01-29T02:27:52.309Z,5.74
2017-01-29T02:28:52.287Z,5.75
2017-01-29T02:29:52.262Z,5.84
2017-01-29T02:30:52.243Z,5.74
2017-01-29T02:31:52.209Z,5.69
2017-01-29T02:32:52.183Z,5.75
2017-01-29T02:33:51.763Z,5.73
2017-01-29T02:34:52.143Z,5.7
2017-01-29T02:35:52.119Z,5.66
2017-01-29T02:36:52.084Z,5.73
2017-01-29T02:37:52.111Z,5.69
2017-01-29T02:38:52.054Z,5.67
2017-01-29T02:39:51.616Z,5.78
2017-01-29T02:40:52.040Z,5.73
2017-01-29T02:41:51.995Z,5.7
2017-01-29T02:42:51.587Z,5.65
2017-01-29T02:43:51.916Z,5.65
2017-01-29T02:44:51.492Z,5.66
2017-01-29T02:45:51.865Z,5.59
2017-01-29T02:46:51.444Z,5.56
2017-01-29T02:47:51.816Z,5.59
2017-01-29T02:48:51.792Z,5.52
2017-01-29T02:49:51.765Z,5.52
2017-01-29T02:50:51.750Z,5.56
2017-01-29T02:51:51.769Z,5.51
2017-01-29T02:52:51.303Z,5.44
2017-01-29T02:53:51.667Z,5.51
2017-01-29T02:54:51.643Z,5.42
2017-01-29T02:55:51.617Z,5.47
2017-01-29T02:56:51.193Z,5.4
2017-01-29T02:57:51.571Z,5.41
2017-01-29T02:58:51.602Z,5.44
2017-01-29T02:59:51.517Z,5.38
2017-01-29T03:00:51.496Z,5.35
2017-01-29T03:01:51.468Z,5.41
2017-01-29T03:02:51.448Z,5.35
2017-01-29T03:03:51.059Z,5.44
2017-01-29T03:04:51.393Z,5.4
2017-01-29T03:05:51.383Z,5.32
2017-01-29T03:06:51.350Z,5.4
2017-01-29T03:07:50.925Z,5.37
2017-01-29T03:08:51.305Z,5.27
2017-01-29T03:09:51.279Z,5.3
2017-01-29T03:10:51.297Z,5.27
2017-01-29T03:11:50.828Z,5.3
2017-01-29T03:12:50.801Z,5.24
2017-01-29T03:13:51.178Z,5.29
2017-01-29T03:14:50.749Z,5.29
2017-01-29T03:15:51.122Z,5.22
2017-01-29T03:16:51.102Z,5.29
2017-01-29T03:17:51.075Z,5.29
2017-01-29T03:18:51.048Z,5.26
2017-01-29T03:19:51.029Z,5.23
2017-01-29T03:20:51.052Z,5.2
2017-01-29T03:21:50.976Z,5.24
2017-01-29T03:22:50.947Z,5.22
2017-01-29T03:23:50.928Z,5.12
2017-01-29T03:24:50.897Z,5.23
2017-01-29T03:25:50.093Z,5.22
2017-01-29T03:26:50.512Z,5.23
2017-01-29T03:27:50.424Z,5.15
2017-01-29T03:28:50.799Z,5.17
2017-01-29T03:29:50.795Z,5.27
2017-01-29T03:30:50.751Z,5.24
2017-01-29T03:31:50.766Z,5.22
2017-01-29T03:32:50.703Z,5.23
2017-01-29T03:33:50.676Z,5.23
2017-01-29T03:34:50.649Z,5.2
2017-01-29T03:35:50.623Z,5.2
2017-01-29T03:36:50.596Z,5.24
2017-01-29T03:37:50.577Z,5.2
2017-01-29T03:38:50.549Z,5.22
2017-01-29T03:39:50.530Z,5.17
2017-01-29T03:40:50.753Z,5.05
2017-01-29T03:41:50.476Z,5.11
2017-01-29T03:42:50.082Z,5.12
2017-01-29T03:43:50.430Z,5.22
2017-01-29T03:44:50.400Z,5.09
2017-01-29T03:45:49.983Z,5.12
2017-01-29T03:46:49.959Z,5.05
2017-01-29T03:47:50.319Z,5.08
2017-01-29T03:48:50.307Z,5.17
2017-01-29T03:49:49.885Z,5.08
2017-01-29T03:50:50.253Z,5.12
2017-01-29T03:51:50.228Z,5.04
2017-01-29T03:52:50.202Z,5.08
2017-01-29T03:53:50.178Z,5.09
2017-01-29T03:54:50.461Z,5.12
2017-01-29T03:55:50.132Z,5.12
2017-01-29T03:56:50.098Z,5.17
2017-01-29T03:57:50.074Z,5.01
2017-01-29T03:58:50.050Z,5.05
2017-01-29T03:59:49.634Z,5.14
2017-01-29T04:00:49.601Z,5.14
2017-01-29T04:01:49.989Z,5.08
2017-01-29T04:02:49.950Z,4.94
2017-01-29T04:03:49.924Z,5.08
2017-01-29T04:04:49.111Z,5.04
2017-01-29T04:05:49.483Z,5.06
2017-01-29T04:06:49.854Z,5.09
2017-01-29T04:07:49.822Z,5.01
2017-01-29T04:08:49.807Z,5.06
2017-01-29T04:09:48.983Z,4.96
2017-01-29T04:10:49.352Z,4.99
2017-01-29T04:11:49.729Z,5.01
2017-01-29T04:12:49.718Z,5.05
2017-01-29T04:13:49.688Z,5.04
2017-01-29T04:14:49.652Z,4.99
2017-01-29T04:15:49.630Z,4.88
2017-01-29T04:16:49.605Z,5.05
2017-01-29T04:17:49.592Z,5.02
2017-01-29T04:18:49.555Z,4.99
2017-01-29T04:19:49.535Z,4.97
2017-01-29T04:20:49.545Z,5.01
2017-01-29T04:21:49.481Z,4.99
2017-01-29T04:22:49.458Z,4.94
2017-01-29T04:23:49.029Z,4.94
2017-01-29T04:24:49.402Z,4.91
2017-01-29T04:25:49.015Z,4.99
2017-01-29T04:26:49.400Z,4.93
2017-01-29T04:27:49.338Z,4.97
2017-01-29T04:28:49.301Z,4.97
2017-01-29T04:29:49.278Z,4.93
2017-01-29T04:30:49.263Z,4.96
2017-01-29T04:31:49.231Z,4.91
2017-01-29T04:32:49.208Z,4.87
2017-01-29T04:33:49.177Z,4.87
2017-01-29T04:34:49.184Z,4.91
2017-01-29T04:35:49.131Z,4.83
2017-01-29T04:36:49.112Z,4.91
2017-01-29T04:37:49.076Z,4.87
2017-01-29T04:38:49.058Z,4.87
2017-01-29T04:39:49.062Z,4.9
2017-01-29T04:40:49.007Z,4.84
2017-01-29T04:41:48.982Z,4.77
2017-01-29T04:42:48.953Z,4.75
2017-01-29T04:43:48.529Z,4.84
2017-01-29T04:44:48.501Z,4.75
2017-01-29T04:45:48.880Z,4.86
2017-01-29T04:46:48.859Z,4.79
2017-01-29T04:47:48.825Z,4.8
2017-01-29T04:48:48.007Z,4.8
2017-01-29T04:49:48.383Z,4.79
2017-01-29T04:50:48.414Z,4.77
2017-01-29T04:51:48.666Z,4.8
2017-01-29T04:52:48.310Z,4.75
2017-01-29T04:53:48.280Z,4.75
2017-01-29T04:54:48.659Z,4.74
2017-01-29T04:55:48.626Z,4.74
2017-01-29T04:56:48.612Z,4.72
2017-01-29T04:57:48.629Z,4.8
2017-01-29T04:58:48.149Z,4.68
2017-01-29T04:59:48.529Z,4.8
2017-01-29T05:00:48.588Z,4.75
2017-01-29T05:01:48.505Z,4.69
2017-01-29T05:02:48.059Z,4.72
2017-01-29T05:03:48.428Z,4.72
2017-01-29T05:04:48.399Z,4.8
2017-01-29T05:05:47.978Z,4.72
2017-01-29T05:06:48.363Z,4.79
2017-01-29T05:07:47.936Z,4.75
2017-01-29T05:08:48.300Z,4.75
2017-01-29T05:09:48.273Z,4.74
2017-01-29T05:10:48.305Z,4.74
2017-01-29T05:11:47.829Z,4.69
2017-01-29T05:12:48.195Z,4.71
2017-01-29T05:13:47.778Z,4.72
2017-01-29T05:14:48.149Z,4.61
2017-01-29T05:15:48.183Z,4.64
2017-01-29T05:16:48.105Z,4.61
2017-01-29T05:17:48.087Z,4.64
2017-01-29T05:18:48.056Z,4.72
2017-01-29T05:19:48.063Z,4.71
2017-01-29T05:20:48.009Z,4.71
2017-01-29T05:21:48.028Z,4.74
2017-01-29T05:22:48.011Z,4.64
2017-01-29T05:23:47.923Z,4.62
2017-01-29T05:24:47.503Z,4.69
2017-01-29T05:25:47.874Z,4.64
2017-01-29T05:26:47.857Z,4.61
2017-01-29T05:27:47.827Z,4.65
2017-01-29T05:28:47.799Z,4.68
2017-01-29T05:29:47.776Z,4.54
2017-01-29T05:30:47.743Z,4.61
2017-01-29T05:31:47.719Z,4.53
2017-01-29T05:32:47.705Z,4.57
2017-01-29T05:33:47.670Z,4.62
2017-01-29T05:34:46.900Z,4.56
2017-01-29T05:35:47.627Z,4.5
2017-01-29T05:36:47.205Z,4.59
2017-01-29T05:37:47.572Z,4.57
2017-01-29T05:38:47.548Z,4.44
2017-01-29T05:39:47.519Z,4.54
2017-01-29T05:40:47.101Z,4.54
2017-01-29T05:41:47.471Z,4.57
2017-01-29T05:42:47.053Z,4.53
2017-01-29T05:43:47.417Z,4.53
2017-01-29T05:44:46.995Z,4.65
2017-01-29T05:45:47.367Z,4.47
2017-01-29T05:46:46.953Z,4.51
2017-01-29T05:47:47.322Z,4.49
2017-01-29T05:48:46.498Z,4.49
2017-01-29T05:49:47.266Z,4.51
2017-01-29T05:50:47.307Z,4.53
2017-01-29T05:51:47.269Z,4.56
2017-01-29T05:52:47.199Z,4.51
2017-01-29T05:53:47.175Z,4.47
2017-01-29T05:54:47.149Z,4.53
2017-01-29T05:55:47.117Z,4.43
2017-01-29T05:56:46.687Z,4.5
2017-01-29T05:57:46.666Z,4.49
2017-01-29T05:58:47.048Z,4.44
2017-01-29T05:59:47.115Z,4.44
2017-01-29T06:00:46.990Z,4.36
2017-01-29T06:01:46.966Z,4.5
2017-01-29T06:02:46.952Z,4.47
2017-01-29T06:03:46.515Z,4.49
2017-01-29T06:04:46.086Z,4.39
2017-01-29T06:05:46.471Z,4.42
2017-01-29T06:06:46.889Z,4.46
2017-01-29T06:07:46.814Z,4.51
2017-01-29T06:08:46.780Z,4.49
2017-01-29T06:09:46.757Z,4.36
2017-01-29T06:10:46.730Z,4.36
2017-01-29T06:11:46.799Z,4.39
2017-01-29T06:12:46.279Z,4.36
2017-01-29T06:13:46.665Z,4.47
2017-01-29T06:14:46.237Z,4.51
2017-01-29T06:15:46.216Z,4.46
2017-01-29T06:16:46.585Z,4.49
2017-01-29T06:17:46.158Z,4.5
2017-01-29T06:18:46.535Z,4.49
2017-01-29T06:19:46.504Z,4.56
2017-01-29T06:20:46.481Z,4.51
2017-01-29T06:21:46.454Z,4.5
2017-01-29T06:22:46.430Z,4.54
2017-01-29T06:23:46.409Z,4.53
2017-01-29T06:24:46.027Z,4.51
2017-01-29T06:25:45.994Z,4.57
2017-01-29T06:26:46.328Z,4.47
2017-01-29T06:27:46.304Z,4.5
2017-01-29T06:28:45.872Z,4.61
2017-01-29T06:29:46.247Z,4.57
2017-01-29T06:30:46.221Z,4.59
2017-01-29T06:31:46.198Z,4.61
2017-01-29T06:32:45.775Z,4.62
2017-01-29T06:33:45.743Z,4.59
2017-01-29T06:34:45.719Z,4.53
2017-01-29T06:35:45.691Z,4.49
2017-01-29T06:36:46.070Z,4.56
2017-01-29T06:37:45.648Z,4.56
2017-01-29T06:38:45.625Z,4.54
2017-01-29T06:39:45.591Z,4.64
2017-01-29T06:40:45.572Z,4.61
2017-01-29T06:41:45.939Z,4.62
2017-01-29T06:42:45.919Z,4.61
2017-01-29T06:43:45.889Z,4.64
2017-01-29T06:44:45.865Z,4.56
2017-01-29T06:45:45.838Z,4.68
2017-01-29T06:46:45.814Z,4.59
2017-01-29T06:47:45.784Z,4.71
2017-01-29T06:48:45.368Z,4.72
2017-01-29T06:49:45.736Z,4.64
2017-01-29T06:50:45.709Z,4.64
2017-01-29T06:51:45.811Z,4.69
2017-01-29T06:52:45.263Z,4.68
2017-01-29T06:53:45.629Z,4.75
2017-01-29T06:54:45.613Z,4.74
2017-01-29T06:55:45.587Z,4.83
2017-01-29T06:56:45.560Z,4.83
2017-01-29T06:57:45.538Z,4.88
2017-01-29T06:58:45.505Z,4.86
2017-01-29T06:59:45.085Z,4.77
2017-01-29T07:00:45.056Z,4.79
2017-01-29T07:01:45.438Z,4.75
2017-01-29T07:02:45.369Z,4.9
2017-01-29T07:03:45.380Z,4.84
2017-01-29T07:04:44.954Z,4.87
2017-01-29T07:05:45.604Z,4.88
2017-01-29T07:06:45.307Z,4.84
2017-01-29T07:07:45.280Z,4.91
2017-01-29T07:08:45.299Z,4.88
2017-01-29T07:09:45.224Z,4.91
2017-01-29T07:10:44.800Z,4.87
2017-01-29T07:11:45.175Z,4.77
2017-01-29T07:12:45.155Z,4.87
2017-01-29T07:13:45.128Z,4.83
2017-01-29T07:14:45.100Z,4.84
2017-01-29T07:15:45.079Z,4.84
2017-01-29T07:16:44.654Z,4.86
2017-01-29T07:17:45.025Z,4.87
2017-01-29T07:18:44.603Z,4.86
2017-01-29T07:19:44.580Z,4.88
2017-01-29T07:20:44.551Z,4.91
2017-01-29T07:21:44.528Z,4.94
2017-01-29T07:22:44.897Z,4.99
2017-01-29T07:23:44.875Z,5.01
2017-01-29T07:24:44.462Z,4.93
2017-01-29T07:25:44.831Z,4.96
2017-01-29T07:26:44.797Z,5.04
2017-01-29T07:27:44.780Z,5.04
2017-01-29T07:28:44.797Z,5.11
2017-01-29T07:29:44.321Z,5.08
2017-01-29T07:30:44.701Z,5.06
2017-01-29T07:31:44.670Z,5.05
2017-01-29T07:32:44.646Z,5.15
2017-01-29T07:33:44.225Z,5.15
2017-01-29T07:34:44.194Z,5.11
2017-01-29T07:35:44.573Z,5.15
2017-01-29T07:36:44.545Z,5.23
2017-01-29T07:37:44.522Z,5.22
2017-01-29T07:38:44.492Z,5.2
2017-01-29T07:39:44.474Z,5.32
2017-01-29T07:40:44.045Z,5.41
2017-01-29T07:41:44.425Z,5.52
2017-01-29T07:42:44.006Z,5.69
2017-01-29T07:43:44.431Z,5.96
2017-01-29T07:44:44.349Z,6.14
2017-01-29T07:45:44.328Z,6.28
2017-01-29T07:46:43.499Z,6.53
2017-01-29T07:47:44.277Z,6.69
2017-01-29T07:48:43.921Z,6.83
2017-01-29T07:49:44.270Z,7
2017-01-29T07:50:43.797Z,6.97
2017-01-29T07:51:44.180Z,6.91
2017-01-29T07:52:44.152Z,6.75
2017-01-29T07:53:44.127Z,6.58
2017-01-29T07:54:44.113Z,6.45
2017-01-29T07:55:44.085Z,6.32
2017-01-29T07:56:44.053Z,6.16
2017-01-29T07:57:44.032Z,6.08
2017-01-29T07:58:44.027Z,5.98
2017-01-29T07:59:43.588Z,5.83
2017-01-29T08:00:43.959Z,5.92
2017-01-29T08:01:43.942Z,5.77
2017-01-29T08:02:43.521Z,5.78
2017-01-29T08:03:43.891Z,5.65
2017-01-29T08:04:43.519Z,5.62
2017-01-29T08:05:43.840Z,5.6
2017-01-29T08:06:43.864Z,5.51
2017-01-29T08:07:43.789Z,5.52
2017-01-29T08:08:43.816Z,5.51
2017-01-29T08:09:43.739Z,5.45
2017-01-29T08:10:43.321Z,5.37
2017-01-29T08:11:43.740Z,5.4
2017-01-29T08:12:43.271Z,5.38
2017-01-29T08:13:43.640Z,5.44
2017-01-29T08:14:43.626Z,5.41
2017-01-29T08:15:43.593Z,5.47
2017-01-29T08:16:43.170Z,5.33
2017-01-29T08:17:43.148Z,5.42
2017-01-29T08:18:43.530Z,5.4
2017-01-29T08:19:43.954Z,5.32
2017-01-29T08:20:42.680Z,5.35
2017-01-29T08:21:43.443Z,5.33
2017-01-29T08:22:43.024Z,5.38
2017-01-29T08:23:43.398Z,5.35
2017-01-29T08:24:43.373Z,5.35
2017-01-29T08:25:42.956Z,5.35
2017-01-29T08:26:43.329Z,5.35
2017-01-29T08:27:43.296Z,5.44
2017-01-29T08:28:43.270Z,5.47
2017-01-29T08:29:43.297Z,5.44
2017-01-29T08:30:43.227Z,5.35
2017-01-29T08:31:42.805Z,5.37
2017-01-29T08:32:43.173Z,5.38
2017-01-29T08:33:43.151Z,5.35
2017-01-29T08:34:43.128Z,5.35
2017-01-29T08:35:42.703Z,5.4
2017-01-29T08:36:42.677Z,5.38
2017-01-29T08:37:43.049Z,5.26
2017-01-29T08:38:43.022Z,5.11
2017-01-29T08:39:43.003Z,5.15
2017-01-29T08:40:42.986Z,5.05
2017-01-29T08:41:42.950Z,5.04
2017-01-29T08:42:42.929Z,5.04
2017-01-29T08:43:42.971Z,4.97
2017-01-29T08:44:42.880Z,4.94
2017-01-29T08:45:42.854Z,4.93
2017-01-29T08:46:42.027Z,4.86
2017-01-29T08:47:42.803Z,4.84
2017-01-29T08:48:42.775Z,4.8
2017-01-29T08:49:41.954Z,4.77
2017-01-29T08:50:42.735Z,4.71
2017-01-29T08:51:42.299Z,4.71
2017-01-29T08:52:42.675Z,4.64
2017-01-29T08:53:42.645Z,4.72
2017-01-29T08:54:42.619Z,4.72
2017-01-29T08:55:42.644Z,4.61
2017-01-29T08:56:42.175Z,4.71
2017-01-29T08:57:42.158Z,4.75
2017-01-29T08:58:42.526Z,4.75
2017-01-29T08:59:42.491Z,4.72
2017-01-29T09:00:42.477Z,4.72
2017-01-29T09:01:42.444Z,4.69
2017-01-29T09:02:42.428Z,4.72
2017-01-29T09:03:42.400Z,4.71
2017-01-29T09:04:42.377Z,4.71
2017-01-29T09:05:42.345Z,4.74
2017-01-29T09:06:42.322Z,4.74
2017-01-29T09:07:41.890Z,4.68
2017-01-29T09:08:41.870Z,4.74
2017-01-29T09:09:42.240Z,4.72
2017-01-29T09:10:42.222Z,4.8
2017-01-29T09:11:42.193Z,4.77
2017-01-29T09:12:41.767Z,4.74
2017-01-29T09:13:42.146Z,4.79
2017-01-29T09:14:41.716Z,4.77
2017-01-29T09:15:42.199Z,4.77
2017-01-29T09:16:42.117Z,4.75
2017-01-29T09:17:42.046Z,4.84
2017-01-29T09:18:42.018Z,4.83
2017-01-29T09:19:41.591Z,4.88
2017-01-29T09:20:41.965Z,4.77
2017-01-29T09:21:41.540Z,4.77
2017-01-29T09:22:41.925Z,4.87
2017-01-29T09:23:41.489Z,4.84
2017-01-29T09:24:41.515Z,4.86
2017-01-29T09:25:41.434Z,4.88
2017-01-29T09:26:41.815Z,4.84
2017-01-29T09:27:41.846Z,4.91
2017-01-29T09:28:41.815Z,4.94
2017-01-29T09:29:41.335Z,4.99
2017-01-29T09:30:41.710Z,4.94
2017-01-29T09:31:41.344Z,4.99
2017-01-29T09:32:41.311Z,5.04
2017-01-29T09:33:41.635Z,4.88
2017-01-29T09:34:41.209Z,5.02
2017-01-29T09:35:41.632Z,5.02
2017-01-29T09:36:41.574Z,4.94
2017-01-29T09:37:40.739Z,4.97
2017-01-29T09:38:41.512Z,5.09
2017-01-29T09:39:41.481Z,5.01
2017-01-29T09:40:41.464Z,5.14
2017-01-29T09:41:41.432Z,5.22
2017-01-29T09:42:41.418Z,5.14
2017-01-29T09:43:41.440Z,5.12
2017-01-29T09:44:41.371Z,5.09
2017-01-29T09:45:41.346Z,5.08
2017-01-29T09:46:41.314Z,5.12
2017-01-29T09:47:41.393Z,5.09
2017-01-29T09:48:41.282Z,5.23
2017-01-29T09:49:41.249Z,5.2
2017-01-29T09:50:40.858Z,5.14
2017-01-29T09:51:40.789Z,5.15
2017-01-29T09:52:40.767Z,5.24
2017-01-29T09:53:41.137Z,5.17
2017-01-29T09:54:41.165Z,5.17
2017-01-29T09:55:41.093Z,5.14
2017-01-29T09:56:41.065Z,5.26
2017-01-29T09:57:41.065Z,5.22
2017-01-29T09:58:40.269Z,5.23
2017-01-29T09:59:40.198Z,5.24
2017-01-29T10:00:40.964Z,5.19
2017-01-29T10:01:40.939Z,5.19
2017-01-29T10:02:40.916Z,5.27
2017-01-29T10:03:40.902Z,5.17
2017-01-29T10:04:40.926Z,5.23
2017-01-29T10:05:40.848Z,5.11
2017-01-29T10:06:40.816Z,5.26
2017-01-29T10:07:40.806Z,5.12
2017-01-29T10:08:40.822Z,5.17
2017-01-29T10:09:40.738Z,5.19
2017-01-29T10:10:40.324Z,5.22
2017-01-29T10:11:40.294Z,5.24
2017-01-29T10:12:40.674Z,5.24
2017-01-29T10:13:40.238Z,5.29
2017-01-29T10:14:40.617Z,5.32
2017-01-29T10:15:40.594Z,5.33
2017-01-29T10:16:40.572Z,5.26
2017-01-29T10:17:40.149Z,5.27
2017-01-29T10:18:40.526Z,5.27
2017-01-29T10:19:40.102Z,5.33
2017-01-29T10:20:40.476Z,5.32
2017-01-29T10:21:40.047Z,5.29
2017-01-29T10:22:40.416Z,5.27
2017-01-29T10:23:40.451Z,5.32
2017-01-29T10:24:39.978Z,5.32
2017-01-29T10:25:40.346Z,5.32
2017-01-29T10:26:39.928Z,5.23
2017-01-29T10:27:40.296Z,5.3
2017-01-29T10:28:40.280Z,5.27
2017-01-29T10:29:40.249Z,5.38
2017-01-29T10:30:40.234Z,5.44
2017-01-29T10:31:40.257Z,5.35
2017-01-29T10:32:40.175Z,5.44
2017-01-29T10:33:40.150Z,5.4
2017-01-29T10:34:40.129Z,5.35
2017-01-29T10:35:40.106Z,5.47
2017-01-29T10:36:40.078Z,5.45
2017-01-29T10:37:39.682Z,5.51
2017-01-29T10:38:40.034Z,5.47
2017-01-29T10:39:40.011Z,5.52
2017-01-29T10:40:40.029Z,5.55
2017-01-29T10:41:39.554Z,5.63
2017-01-29T10:42:39.536Z,5.59
2017-01-29T10:43:39.507Z,5.65
2017-01-29T10:44:39.878Z,5.65
2017-01-29T10:45:39.461Z,5.69
2017-01-29T10:46:39.833Z,5.65
2017-01-29T10:47:39.816Z,5.69
2017-01-29T10:48:39.384Z,5.83
2017-01-29T10:49:39.765Z,5.8
2017-01-29T10:50:39.339Z,5.85
2017-01-29T10:51:39.329Z,5.84
2017-01-29T10:52:39.700Z,5.88
2017-01-29T10:53:39.664Z,5.92
2017-01-29T10:54:39.257Z,5.93
2017-01-29T10:55:39.214Z,5.88
2017-01-29T10:56:39.199Z,5.93
2017-01-29T10:57:39.175Z,5.99
2017-01-29T10:58:39.545Z,6.05
2017-01-29T10:59:39.524Z,5.95
2017-01-29T11:00:39.496Z,5.95
2017-01-29T11:01:39.068Z,5.95
2017-01-29T11:02:39.453Z,6.05
2017-01-29T11:03:39.423Z,6.06
2017-01-29T11:04:39.004Z,6.05
2017-01-29T11:05:39.376Z,5.99
2017-01-29T11:06:39.356Z,5.99
2017-01-29T11:07:38.927Z,6.05
2017-01-29T11:08:39.305Z,5.96
2017-01-29T11:09:39.286Z,5.96
2017-01-29T11:10:39.304Z,5.96
2017-01-29T11:11:39.248Z,5.92
2017-01-29T11:12:39.218Z,5.81
2017-01-29T11:13:38.791Z,5.93
2017-01-29T11:14:39.157Z,5.87
2017-01-29T11:15:39.139Z,5.96
2017-01-29T11:16:39.019Z,5.96
2017-01-29T11:17:38.688Z,5.92
2017-01-29T11:18:39.067Z,5.9
2017-01-29T11:19:39.038Z,5.88
2017-01-29T11:20:39.014Z,5.93
2017-01-29T11:21:38.995Z,5.87
2017-01-29T11:22:38.969Z,5.87
2017-01-29T11:23:38.947Z,5.8
2017-01-29T11:24:38.921Z,5.9
2017-01-29T11:25:38.893Z,5.87
2017-01-29T11:26:38.085Z,5.87
2017-01-29T11:27:38.852Z,5.85
2017-01-29T11:28:38.427Z,5.88
2017-01-29T11:29:38.400Z,5.96
2017-01-29T11:30:38.432Z,5.92
2017-01-29T11:31:38.749Z,6.02
2017-01-29T11:32:38.632Z,6.14
2017-01-29T11:33:38.759Z,6.1
2017-01-29T11:34:38.319Z,6.08
2017-01-29T11:35:38.260Z,6.11
2017-01-29T11:36:38.683Z,6.16
2017-01-29T11:37:38.603Z,6.21
2017-01-29T11:38:38.589Z,6.21
2017-01-29T11:39:38.562Z,6.3
2017-01-29T11:40:38.537Z,6.25
2017-01-29T11:41:38.168Z,6.27
2017-01-29T11:42:38.088Z,6.28
2017-01-29T11:43:38.476Z,6.32
2017-01-29T11:44:38.441Z,6.3
2017-01-29T11:45:38.469Z,6.38
2017-01-29T11:46:38.392Z,6.39
2017-01-29T11:47:38.373Z,6.51
2017-01-29T11:48:38.415Z,6.58
2017-01-29T11:49:38.423Z,6.58
2017-01-29T11:50:38.295Z,6.57
2017-01-29T11:51:37.877Z,6.68
2017-01-29T11:52:38.253Z,6.63
2017-01-29T11:53:37.834Z,6.65
2017-01-29T11:54:38.204Z,6.61
2017-01-29T11:55:38.240Z,6.69
2017-01-29T11:56:37.759Z,6.71
2017-01-29T11:57:38.138Z,6.68
2017-01-29T11:58:38.114Z,6.72
2017-01-29T11:59:37.696Z,6.79
2017-01-29T12:00:37.698Z,6.76
2017-01-29T12:01:38.042Z,6.78
2017-01-29T12:02:38.023Z,6.72
2017-01-29T12:03:37.600Z,6.73
2017-01-29T12:04:37.176Z,6.71
2017-01-29T12:05:37.560Z,6.73
2017-01-29T12:06:37.923Z,6.76
2017-01-29T12:07:37.906Z,6.63
2017-01-29T12:08:37.475Z,6.72
2017-01-29T12:09:37.862Z,6.78
2017-01-29T12:10:37.440Z,6.78
2017-01-29T12:11:37.809Z,6.72
2017-01-29T12:12:37.431Z,6.65
2017-01-29T12:13:37.760Z,6.71
2017-01-29T12:14:37.343Z,6.75
2017-01-29T12:15:37.313Z,6.71
2017-01-29T12:16:37.293Z,6.72
2017-01-29T12:17:37.671Z,6.72
2017-01-29T12:18:37.646Z,6.69
2017-01-29T12:19:37.621Z,6.81
2017-01-29T12:20:37.594Z,6.78
2017-01-29T12:21:36.780Z,6.81
2017-01-29T12:22:37.153Z,6.78
2017-01-29T12:23:37.524Z,6.81
2017-01-29T12:24:37.111Z,6.83
2017-01-29T12:25:37.476Z,6.81
2017-01-29T12:26:37.460Z,6.86
2017-01-29T12:27:37.438Z,6.87
2017-01-29T12:28:37.409Z,6.87
2017-01-29T12:29:37.394Z,6.91
2017-01-29T12:30:37.368Z,6.94
2017-01-29T12:31:37.351Z,6.9
2017-01-29T12:32:37.327Z,6.89
2017-01-29T12:33:37.300Z,6.96
2017-01-29T12:34:37.269Z,6.91
2017-01-29T12:35:37.249Z,6.9
2017-01-29T12:36:36.824Z,6.9
2017-01-29T12:37:37.196Z,6.89
2017-01-29T12:38:36.779Z,6.97
2017-01-29T12:39:37.143Z,6.94
2017-01-29T12:40:37.134Z,6.87
2017-01-29T12:41:37.156Z,6.94
2017-01-29T12:42:37.377Z,6.93
2017-01-29T12:43:37.055Z,6.93
2017-01-29T12:44:37.031Z,7
2017-01-29T12:45:37.007Z,6.89
2017-01-29T12:46:36.985Z,6.87
2017-01-29T12:47:37.010Z,6.89
2017-01-29T12:48:36.938Z,6.9
2017-01-29T12:49:36.912Z,6.89
2017-01-29T12:50:36.895Z,6.87
2017-01-29T12:51:36.828Z,6.91
2017-01-29T12:52:36.952Z,6.87
2017-01-29T12:53:36.833Z,6.89
2017-01-29T12:54:36.798Z,6.9
2017-01-29T12:55:36.631Z,6.97
2017-01-29T12:56:35.958Z,6.97
2017-01-29T12:57:36.732Z,7.01
2017-01-29T12:58:36.706Z,6.94
2017-01-29T12:59:36.681Z,6.96
2017-01-29T13:00:36.255Z,6.99
2017-01-29T13:01:36.643Z,7.04
2017-01-29T13:02:36.660Z,7.07
2017-01-29T13:03:36.585Z,7.01
2017-01-29T13:04:36.574Z,7.08
2017-01-29T13:05:36.541Z,7.11
2017-01-29T13:06:36.521Z,7.07
2017-01-29T13:07:36.647Z,7.07
2017-01-29T13:08:36.076Z,7.07
2017-01-29T13:09:36.056Z,7.01
2017-01-29T13:10:36.427Z,7.11
2017-01-29T13:11:36.403Z,7
2017-01-29T13:12:36.383Z,7
2017-01-29T13:13:36.353Z,7.08
2017-01-29T13:14:35.925Z,7.07
2017-01-29T13:15:35.509Z,7.11
2017-01-29T13:16:36.309Z,7.01
2017-01-29T13:17:36.497Z,7.08
2017-01-29T13:18:36.233Z,7.01
2017-01-29T13:19:35.813Z,7.12
2017-01-29T13:20:36.191Z,7.08